createdAt,value
2018-10-11T00:00:12.693Z,100505.63
2018-10-11T00:02:40.403Z,100510.50
2018-10-11T00:05:08.159Z,100506.62
2018-10-11T00:07:35.887Z,100502.30
2018-10-11T00:10:03.755Z,100498.92
2018-10-11T00:12:31.472Z,100500.02
2018-10-11T00:14:59.177Z,100497.78
2018-10-11T00:17:27.170Z,100491.86
2018-10-11T00:19:54.905Z,100494.64
2018-10-11T00:22:22.678Z,100488.04
2018-10-11T00:24:50.393Z,100493.75
2018-10-11T00:27:18.102Z,100499.38
2018-10-11T00:29:45.806Z,100498.97
2018-10-11T00:32:13.526Z,100499.51
2018-10-11T00:34:41.233Z,100496.55
2018-10-11T00:37:08.942Z,100491.69
2018-10-11T00:39:36.653Z,100490.68
2018-10-11T00:42:04.387Z,100484.49
2018-10-11T00:44:32.082Z,100485.90
2018-10-11T00:46:59.848Z,100485.03
2018-10-11T00:49:27.618Z,100495.87
2018-10-11T00:51:55.270Z,100488.16
2018-10-11T00:54:22.971Z,100485.52
2018-10-11T00:56:50.670Z,100484.66
2018-10-11T00:59:18.362Z,100481.77
2018-10-11T01:01:46.079Z,100483.22
2018-10-11T01:04:13.787Z,100483.91
2018-10-11T01:06:41.510Z,100483.25
2018-10-11T01:09:10.639Z,100484.66
2018-10-11T01:11:38.598Z,100472.70
2018-10-11T01:14:06.822Z,100467.75
2018-10-11T01:16:34.526Z,100467.36
2018-10-11T01:19:02.227Z,100467.95
2018-10-11T01:21:29.977Z,100469.14
2018-10-11T01:23:57.813Z,100476.94
2018-10-11T01:26:25.422Z,100469.04
2018-10-11T01:28:53.155Z,100469.14
2018-10-11T01:31:22.088Z,100475.86
2018-10-11T01:33:50.378Z,100469.48
2018-10-11T01:36:18.195Z,100475.30
2018-10-11T01:38:47.424Z,100479.45
2018-10-11T01:41:15.239Z,100475.27
2018-10-11T01:43:43.058Z,100475.21
2018-10-11T01:46:10.787Z,100476.86
2018-10-11T01:48:38.555Z,100481.02
2018-10-11T01:51:06.311Z,100476.20
2018-10-11T01:53:34.186Z,100475.19
2018-10-11T01:56:01.933Z,100475.69
2018-10-11T01:58:29.638Z,100481.77
2018-10-11T02:00:57.354Z,100480.31
2018-10-11T02:03:25.067Z,100476.22
2018-10-11T02:05:53.035Z,100483.27
2018-10-11T02:08:20.752Z,100486.74
2018-10-11T02:10:48.474Z,100485.39
2018-10-11T02:13:16.177Z,100488.73
2018-10-11T02:15:43.886Z,100491.24
2018-10-11T02:18:11.602Z,100491.53
2018-10-11T02:20:39.313Z,100490.99
2018-10-11T02:23:07.114Z,100490.08
2018-10-11T02:25:34.899Z,100486.04
2018-10-11T02:28:02.630Z,100487.89
2018-10-11T02:30:30.331Z,100488.35
2018-10-11T02:32:58.037Z,100485.97
2018-10-11T02:35:25.762Z,100482.95
2018-10-11T02:37:53.468Z,100481.22
2018-10-11T02:40:21.258Z,100487.81
2018-10-11T02:42:48.976Z,100478.20
2018-10-11T02:45:16.689Z,100480.39
2018-10-11T02:47:44.418Z,100483.33
2018-10-11T02:50:12.210Z,100478.51
2018-10-11T02:52:39.914Z,100471.80
2018-10-11T02:55:07.741Z,100472.66
2018-10-11T02:57:46.686Z,100468.11
2018-10-11T03:00:14.514Z,100467.71
2018-10-11T03:02:44.085Z,100471.21
2018-10-11T03:05:17.346Z,100471.75
2018-10-11T03:07:45.237Z,100478.13
2018-10-11T03:10:13.148Z,100482.92
2018-10-11T03:12:40.925Z,100490.95
2018-10-11T03:15:08.746Z,100494.78
2018-10-11T03:17:36.492Z,100479.59
2018-10-11T03:20:04.285Z,100472.54
2018-10-11T03:22:32.071Z,100472.64
2018-10-11T03:24:59.874Z,100473.88
2018-10-11T03:27:27.608Z,100466.88
2018-10-11T03:29:55.318Z,100462.86
2018-10-11T03:32:23.030Z,100465.62
2018-10-11T03:34:50.731Z,100463.41
2018-10-11T03:37:18.450Z,100459.05
2018-10-11T03:39:46.155Z,100462.75
2018-10-11T03:42:13.851Z,100462.76
2018-10-11T03:44:41.558Z,100457.63
2018-10-11T03:47:09.270Z,100459.17
2018-10-11T03:49:36.977Z,100451.55
2018-10-11T03:52:04.708Z,100447.72
2018-10-11T03:54:32.417Z,100451.91
2018-10-11T03:57:00.158Z,100453.20
2018-10-11T03:59:27.981Z,100450.77
2018-10-11T04:01:55.942Z,100448.79
2018-10-11T04:04:23.666Z,100443.97
2018-10-11T04:06:51.414Z,100442.22
2018-10-11T04:09:19.153Z,100440.65
2018-10-11T04:11:46.846Z,100445.61
2018-10-11T04:14:14.583Z,100444.70
2018-10-11T04:16:42.290Z,100442.52
2018-10-11T04:19:09.986Z,100450.11
2018-10-11T04:21:37.702Z,100440.01
2018-10-11T04:24:05.433Z,100431.95
2018-10-11T04:26:33.194Z,100443.11
2018-10-11T04:29:00.950Z,100441.20
2018-10-11T04:31:28.699Z,100436.66
2018-10-11T04:33:56.434Z,100437.89
2018-10-11T04:36:24.179Z,100436.20
2018-10-11T04:38:52.183Z,100435.15
2018-10-11T04:41:19.886Z,100437.33
2018-10-11T04:43:47.585Z,100431.97
2018-10-11T04:46:15.349Z,100434.38
2018-10-11T04:48:43.078Z,100436.43
2018-10-11T04:51:10.775Z,100446.23
2018-10-11T04:53:38.615Z,100433.80
2018-10-11T04:56:06.297Z,100441.67
2018-10-11T04:58:34.022Z,100448.00
2018-10-11T05:01:01.758Z,100448.09
2018-10-11T05:03:29.454Z,100445.64
2018-10-11T05:05:57.201Z,100445.87
2018-10-11T05:08:24.910Z,100444.13
2018-10-11T05:10:52.801Z,100446.13
2018-10-11T05:13:30.473Z,100444.03
2018-10-11T05:15:58.381Z,100443.26
2018-10-11T05:18:26.214Z,100449.63
2018-10-11T05:20:54.014Z,100444.37
2018-10-11T05:23:21.730Z,100444.51
2018-10-11T05:25:49.477Z,100436.20
2018-10-11T05:28:17.218Z,100445.53
2018-10-11T05:30:45.458Z,100452.38
2018-10-11T05:33:14.099Z,100450.59
2018-10-11T05:35:41.867Z,100453.39
2018-10-11T05:38:09.575Z,100460.45
2018-10-11T05:40:37.354Z,100460.63
2018-10-11T05:43:05.338Z,100458.00
2018-10-11T05:45:34.860Z,100461.11
2018-10-11T05:48:02.755Z,100460.50
2018-10-11T05:50:30.578Z,100458.68
2018-10-11T05:52:58.563Z,100459.92
2018-10-11T05:55:26.384Z,100467.40
2018-10-11T05:57:54.231Z,100460.69
2018-10-11T06:00:22.072Z,100468.61
2018-10-11T06:02:59.384Z,100462.65
2018-10-11T06:05:27.734Z,100460.82
2018-10-11T06:07:55.891Z,100459.34
2018-10-11T06:10:24.468Z,100464.89
2018-10-11T06:12:52.359Z,100472.63
2018-10-11T06:15:20.291Z,100472.17
2018-10-11T06:17:48.295Z,100481.19
2018-10-11T06:20:16.087Z,100486.38
2018-10-11T06:22:43.830Z,100484.65
2018-10-11T06:25:11.714Z,100491.12
2018-10-11T06:27:40.299Z,100483.48
2018-10-11T06:30:08.166Z,100489.17
2018-10-11T06:32:36.106Z,100487.84
2018-10-11T06:35:03.949Z,100488.22
2018-10-11T06:37:31.855Z,100490.25
2018-10-11T06:40:00.139Z,100487.91
2018-10-11T06:42:28.191Z,100493.75
2018-10-11T06:44:56.766Z,100495.70
2018-10-11T06:47:24.658Z,100493.81
2018-10-11T06:49:52.600Z,100491.72
2018-10-11T06:52:20.537Z,100494.78
2018-10-11T06:54:48.385Z,100490.48
2018-10-11T06:57:16.090Z,100489.83
2018-10-11T06:59:43.910Z,100494.41
2018-10-11T07:02:11.658Z,100496.55
2018-10-11T07:04:39.380Z,100497.15
2018-10-11T07:07:07.221Z,100492.58
2018-10-11T07:09:34.938Z,100497.45
2018-10-11T07:12:02.661Z,100501.80
2018-10-11T07:14:30.386Z,100506.01
2018-10-11T07:16:58.098Z,100502.53
2018-10-11T07:19:25.921Z,100504.88
2018-10-11T07:21:53.574Z,100501.87
2018-10-11T07:24:21.298Z,100498.13
2018-10-11T07:26:49.025Z,100501.87
2018-10-11T07:29:16.798Z,100503.59
2018-10-11T07:31:44.557Z,100507.01
2018-10-11T07:34:12.277Z,100511.58
2018-10-11T07:36:40.010Z,100521.48
2018-10-11T07:39:10.327Z,100517.45
2018-10-11T07:41:38.034Z,100519.03
2018-10-11T07:44:06.366Z,100519.34
2018-10-11T07:46:34.219Z,100515.45
2018-10-11T07:49:02.514Z,100512.54
2018-10-11T07:51:30.249Z,100517.91
2018-10-11T07:54:01.210Z,100523.67
2018-10-11T07:56:29.889Z,100522.95
2018-10-11T07:58:58.276Z,100516.48
2018-10-11T08:01:26.332Z,100526.56
2018-10-11T08:03:53.973Z,100524.87
2018-10-11T08:06:21.715Z,100519.13
2018-10-11T08:08:49.553Z,100521.78
2018-10-11T08:11:17.313Z,100524.05
2018-10-11T08:13:45.027Z,100524.73
2018-10-11T08:16:12.899Z,100523.73
2018-10-11T08:18:40.565Z,100531.99
2018-10-11T08:21:08.268Z,100523.16
2018-10-11T08:23:36.225Z,100527.84
2018-10-11T08:26:04.425Z,100522.50
2018-10-11T08:28:32.038Z,100524.90
2018-10-11T08:30:59.850Z,100529.28
2018-10-11T08:33:27.588Z,100534.59
2018-10-11T08:35:55.328Z,100523.62
2018-10-11T08:38:23.086Z,100540.17
2018-10-11T08:40:50.810Z,100527.93
2018-10-11T08:43:18.573Z,100538.47
2018-10-11T08:45:46.302Z,100537.01
2018-10-11T08:48:14.035Z,100532.72
2018-10-11T08:50:41.863Z,100534.56
2018-10-11T08:53:10.098Z,100533.95
2018-10-11T08:55:38.027Z,100539.52
2018-10-11T08:58:05.666Z,100542.14
2018-10-11T09:00:33.487Z,100543.77
2018-10-11T09:03:01.241Z,100538.31
2018-10-11T09:05:28.950Z,100542.84
2018-10-11T09:07:56.680Z,100545.66
2018-10-11T09:10:37.860Z,100552.20
2018-10-11T09:12:52.147Z,100546.19
2018-10-11T09:15:19.871Z,100541.77
2018-10-11T09:17:47.571Z,100545.66
2018-10-11T09:20:15.344Z,100541.23
2018-10-11T09:22:43.910Z,100550.37
2018-10-11T09:25:11.645Z,100546.03
2018-10-11T09:27:39.377Z,100547.23
2018-10-11T09:30:07.202Z,100546.47
2018-10-11T09:32:34.930Z,100548.40
2018-10-11T09:35:02.766Z,100555.52
2018-10-11T09:37:30.517Z,100551.92
2018-10-11T09:39:58.241Z,100552.37
2018-10-11T09:42:25.966Z,100541.98
2018-10-11T09:44:53.675Z,100538.24
2018-10-11T09:47:21.366Z,100537.77
2018-10-11T09:49:49.081Z,100539.69
2018-10-11T09:52:16.812Z,100536.00
2018-10-11T09:54:44.545Z,100537.83
2018-10-11T09:57:16.429Z,100531.95
2018-10-11T09:59:44.189Z,100521.42
2018-10-11T10:02:12.807Z,100521.20
2018-10-11T10:04:44.639Z,100515.77
2018-10-11T10:07:12.593Z,100511.16
2018-10-11T10:09:41.196Z,100517.23
2018-10-11T10:12:09.886Z,100509.57
2018-10-11T10:14:37.712Z,100507.19
2018-10-11T10:17:06.045Z,100502.91
2018-10-11T10:19:33.741Z,100506.13
2018-10-11T10:22:01.749Z,100496.39
2018-10-11T10:24:29.710Z,100501.73
2018-10-11T10:26:57.507Z,100496.09
2018-10-11T10:29:25.241Z,100500.14
2018-10-11T10:31:52.992Z,100501.23
2018-10-11T10:34:20.706Z,100502.75
2018-10-11T10:36:48.438Z,100498.22
2018-10-11T10:39:16.139Z,100500.26
2018-10-11T10:41:43.866Z,100495.41
2018-10-11T10:44:11.588Z,100498.23
2018-10-11T10:46:39.338Z,100493.49
2018-10-11T10:49:07.122Z,100494.42
2018-10-11T10:51:34.847Z,100487.37
2018-10-11T10:54:02.673Z,100485.84
2018-10-11T10:56:30.382Z,100485.43
2018-10-11T10:58:58.107Z,100478.32
2018-10-11T11:01:25.839Z,100480.71
2018-10-11T11:03:53.625Z,100482.59
2018-10-11T11:06:21.361Z,100478.91
2018-10-11T11:08:49.134Z,100475.37
2018-10-11T11:11:16.843Z,100480.11
2018-10-11T11:13:44.606Z,100482.09
2018-10-11T11:16:12.858Z,100474.53
2018-10-11T11:18:40.605Z,100477.08
2018-10-11T11:21:08.994Z,100476.97
2018-10-11T11:23:36.751Z,100471.44
2018-10-11T11:26:04.485Z,100466.61
2018-10-11T11:28:32.225Z,100463.99
2018-10-11T11:31:00.010Z,100461.95
2018-10-11T11:33:27.758Z,100462.91
2018-10-11T11:35:55.496Z,100458.81
2018-10-11T11:38:23.238Z,100455.88
2018-10-11T11:40:50.968Z,100457.47
2018-10-11T11:43:18.696Z,100449.48
2018-10-11T11:45:46.439Z,100453.07
2018-10-11T11:48:14.238Z,100450.48
2018-10-11T11:50:41.993Z,100441.17
2018-10-11T11:53:09.816Z,100445.17
2018-10-11T11:55:37.531Z,100446.05
2018-10-11T11:58:05.509Z,100438.31
2018-10-11T12:00:33.235Z,100436.97
2018-10-11T12:03:01.167Z,100438.59
2018-10-11T12:05:29.551Z,100435.84
2018-10-11T12:07:57.280Z,100438.50
2018-10-11T12:10:25.065Z,100442.75
2018-10-11T12:12:59.171Z,100441.36
2018-10-11T12:15:27.987Z,100447.30
2018-10-11T12:17:56.962Z,100448.16
2018-10-11T12:20:26.674Z,100449.81
2018-10-11T12:22:55.567Z,100448.69
2018-10-11T12:25:23.334Z,100443.92
2018-10-11T12:27:51.518Z,100440.37
2018-10-11T12:30:19.319Z,100439.10
2018-10-11T12:32:47.426Z,100436.50
2018-10-11T12:35:16.229Z,100442.77
2018-10-11T12:37:44.025Z,100439.93
2018-10-11T12:40:11.898Z,100440.64
2018-10-11T12:42:39.680Z,100445.59
2018-10-11T12:45:08.609Z,100442.59
2018-10-11T12:47:36.566Z,100440.84
2018-10-11T12:50:04.554Z,100437.50
2018-10-11T12:52:32.526Z,100438.71
2018-10-11T12:55:01.226Z,100440.05
2018-10-11T12:57:29.055Z,100441.59
2018-10-11T12:59:56.795Z,100438.31
2018-10-11T13:02:24.577Z,100437.09
2018-10-11T13:04:52.374Z,100437.44
2018-10-11T13:07:20.068Z,100428.72
2018-10-11T13:09:47.783Z,100432.80
2018-10-11T13:12:15.497Z,100431.44
2018-10-11T13:14:43.238Z,100432.23
2018-10-11T13:17:11.026Z,100432.53
2018-10-11T13:19:38.717Z,100428.12
2018-10-11T13:22:06.421Z,100429.41
2018-10-11T13:24:39.765Z,100434.58
2018-10-11T13:27:02.118Z,100430.79
2018-10-11T13:29:30.026Z,100427.27
2018-10-11T13:31:57.722Z,100420.16
2018-10-11T13:34:25.445Z,100422.89
2018-10-11T13:36:53.154Z,100422.05
2018-10-11T13:39:21.578Z,100425.74
2018-10-11T13:41:48.797Z,100421.84
2018-10-11T13:44:16.470Z,100411.02
2018-10-11T13:46:44.221Z,100410.30
2018-10-11T13:49:11.937Z,100405.49
2018-10-11T13:51:39.651Z,100407.17
2018-10-11T13:54:07.434Z,100406.27
2018-10-11T13:56:35.145Z,100407.69
2018-10-11T13:59:06.215Z,100404.66
2018-10-11T14:01:30.755Z,100406.07
2018-10-11T14:03:58.464Z,100401.69
2018-10-11T14:06:26.222Z,100402.55
2018-10-11T14:08:53.937Z,100405.09
2018-10-11T14:11:21.759Z,100404.59
2018-10-11T14:13:49.498Z,100399.27
2018-10-11T14:16:17.263Z,100406.63
2018-10-11T14:18:45.175Z,100404.34
2018-10-11T14:21:13.128Z,100403.03
2018-10-11T14:23:40.987Z,100397.85
2018-10-11T14:26:08.694Z,100403.89
2018-10-11T14:28:36.434Z,100402.70
2018-10-11T14:31:04.219Z,100397.48
2018-10-11T14:33:31.975Z,100399.56
2018-10-11T14:35:59.730Z,100403.76
2018-10-11T14:38:27.450Z,100404.08
2018-10-11T14:40:55.181Z,100403.96
2018-10-11T14:43:22.887Z,100404.94
2018-10-11T14:45:50.597Z,100409.02
2018-10-11T14:48:18.289Z,100405.14
2018-10-11T14:50:46.031Z,100413.31
2018-10-11T14:53:13.763Z,100419.48
2018-10-11T14:55:41.551Z,100416.13
2018-10-11T14:58:09.210Z,100417.58
2018-10-11T15:00:36.929Z,100418.56
2018-10-11T15:03:04.806Z,100414.78
2018-10-11T15:05:32.537Z,100420.00
2018-10-11T15:08:00.236Z,100415.54
2018-10-11T15:10:28.051Z,100416.83
2018-10-11T15:12:56.117Z,100415.48
2018-10-11T15:15:23.510Z,100412.59
2018-10-11T15:17:51.364Z,100414.62
2018-10-11T15:20:19.013Z,100409.81
2018-10-11T15:22:46.721Z,100410.03
2018-10-11T15:25:14.428Z,100410.33
2018-10-11T15:27:42.199Z,100406.32
2018-10-11T15:30:09.930Z,100404.53
2018-10-11T15:32:37.651Z,100413.17
2018-10-11T15:35:05.498Z,100421.75
2018-10-11T15:37:33.210Z,100421.00
2018-10-11T15:40:00.969Z,100426.53
2018-10-11T15:42:28.692Z,100419.72
2018-10-11T15:44:56.505Z,100425.83
2018-10-11T15:47:24.267Z,100423.95
2018-10-11T15:49:52.022Z,100433.53
2018-10-11T15:52:20.671Z,100431.55
2018-10-11T15:54:49.147Z,100431.78
2018-10-11T15:57:16.989Z,100441.09
2018-10-11T15:59:44.771Z,100439.48
2018-10-11T16:02:12.504Z,100438.23
2018-10-11T16:04:40.824Z,100445.20
2018-10-11T16:07:08.901Z,100443.55
2018-10-11T16:09:36.897Z,100437.69
2018-10-11T16:12:04.621Z,100439.44
2018-10-11T16:14:33.445Z,100440.05
2018-10-11T16:17:01.698Z,100438.49
2018-10-11T16:19:29.465Z,100442.18
2018-10-11T16:21:57.195Z,100440.24
2018-10-11T16:24:25.358Z,100449.91
2018-10-11T16:26:53.863Z,100447.05
2018-10-11T16:29:21.877Z,100448.03
2018-10-11T16:31:52.545Z,100445.12
2018-10-11T16:34:20.501Z,100456.95
2018-10-11T16:36:48.190Z,100453.17
2018-10-11T16:39:16.027Z,100453.84
2018-10-11T16:41:43.715Z,100450.32
2018-10-11T16:44:11.547Z,100456.97
2018-10-11T16:46:40.722Z,100460.28
2018-10-11T16:49:09.099Z,100462.12
2018-10-11T16:51:37.314Z,100464.00
2018-10-11T16:54:05.807Z,100462.69
2018-10-11T16:56:35.351Z,100468.47
2018-10-11T16:59:03.342Z,100464.50
2018-10-11T17:01:31.163Z,100464.97
2018-10-11T17:03:58.923Z,100461.86
2018-10-11T17:06:26.654Z,100461.75
2018-10-11T17:08:54.542Z,100460.31
2018-10-11T17:11:22.290Z,100464.59
2018-10-11T17:13:50.004Z,100456.28
2018-10-11T17:16:18.327Z,100455.50
2018-10-11T17:18:46.142Z,100463.31
2018-10-11T17:21:13.905Z,100460.25
2018-10-11T17:23:41.671Z,100455.92
2018-10-11T17:26:09.466Z,100466.92
2018-10-11T17:28:37.528Z,100465.52
2018-10-11T17:31:05.562Z,100468.47
2018-10-11T17:33:34.507Z,100468.25
2018-10-11T17:36:03.600Z,100470.55
2018-10-11T17:38:32.099Z,100478.05
2018-10-11T17:40:59.885Z,100474.14
2018-10-11T17:43:27.635Z,100478.70
2018-10-11T17:45:55.352Z,100479.64
2018-10-11T17:48:23.350Z,100482.97
2018-10-11T17:50:51.087Z,100481.83
2018-10-11T17:53:18.878Z,100488.39
2018-10-11T17:55:46.622Z,100479.45
2018-10-11T17:58:14.341Z,100484.13
2018-10-11T18:00:42.171Z,100482.80
2018-10-11T18:03:09.929Z,100485.24
2018-10-11T18:05:37.637Z,100490.66
2018-10-11T18:08:05.479Z,100486.78
2018-10-11T18:10:33.187Z,100487.83
2018-10-11T18:13:00.907Z,100497.48
2018-10-11T18:15:29.026Z,100498.73
2018-10-11T18:17:56.813Z,100502.22
2018-10-11T18:20:24.534Z,100497.41
2018-10-11T18:22:52.246Z,100502.72
2018-10-11T18:25:19.976Z,100502.14
2018-10-11T18:27:47.721Z,100507.46
2018-10-11T18:30:15.485Z,100504.87
2018-10-11T18:32:43.233Z,100499.95
2018-10-11T18:35:11.064Z,100491.70
2018-10-11T18:37:38.827Z,100503.27
2018-10-11T18:40:06.658Z,100497.48
2018-10-11T18:42:34.390Z,100495.58
2018-10-11T18:45:02.288Z,100498.52
2018-10-11T18:47:30.080Z,100497.48
2018-10-11T18:49:58.046Z,100496.44
2018-10-11T18:52:25.775Z,100493.21
2018-10-11T18:54:53.505Z,100499.77
2018-10-11T18:57:21.253Z,100496.91
2018-10-11T18:59:48.982Z,100503.94
2018-10-11T19:02:16.707Z,100498.41
2018-10-11T19:04:44.478Z,100501.85
2018-10-11T19:07:12.242Z,100504.11
2018-10-11T19:09:40.032Z,100507.34
2018-10-11T19:12:08.119Z,100498.41
2018-10-11T19:14:35.833Z,100501.56
2018-10-11T19:17:03.595Z,100498.41
2018-10-11T19:19:31.330Z,100498.70
2018-10-11T19:21:59.068Z,100498.98
2018-10-11T19:24:26.854Z,100502.59
2018-10-11T19:26:54.571Z,100509.36
2018-10-11T19:29:22.350Z,100511.44
2018-10-11T19:31:50.222Z,100510.52
2018-10-11T19:34:17.967Z,100518.23
2018-10-11T19:36:45.682Z,100517.34
2018-10-11T19:39:14.080Z,100519.92
2018-10-11T19:41:41.811Z,100516.80
2018-10-11T19:44:10.192Z,100511.89
2018-10-11T19:46:37.922Z,100506.18
2018-10-11T19:49:05.787Z,100511.44
2018-10-11T19:51:33.587Z,100502.34
2018-10-11T19:54:01.314Z,100502.63
2018-10-11T19:56:29.034Z,100503.88
2018-10-11T19:58:56.778Z,100499.80
2018-10-11T20:01:24.522Z,100496.09
2018-10-11T20:03:52.248Z,100503.88
2018-10-11T20:06:19.986Z,100502.55
2018-10-11T20:08:47.742Z,100509.30
2018-10-11T20:11:15.450Z,100512.81
2018-10-11T20:13:43.242Z,100512.39
2018-10-11T20:16:11.003Z,100512.67
2018-10-11T20:18:38.743Z,100503.83
2018-10-11T20:21:06.711Z,100508.61
2018-10-11T20:23:34.430Z,100502.78
2018-10-11T20:26:02.177Z,100507.45
2018-10-11T20:28:29.998Z,100499.84
2018-10-11T20:30:57.840Z,100502.25
2018-10-11T20:33:25.585Z,100502.72
2018-10-11T20:35:53.305Z,100501.58
2018-10-11T20:38:21.028Z,100506.70
2018-10-11T20:40:48.746Z,100506.69
2018-10-11T20:43:16.505Z,100509.83
2018-10-11T20:45:44.205Z,100505.94
2018-10-11T20:48:11.927Z,100506.77
2018-10-11T20:50:39.640Z,100508.07
2018-10-11T20:53:07.358Z,100505.70
2018-10-11T20:55:35.079Z,100501.52
2018-10-11T20:58:02.910Z,100500.47
2018-10-11T21:00:30.743Z,100501.67
2018-10-11T21:02:58.447Z,100501.75
2018-10-11T21:05:26.171Z,100498.75
2018-10-11T21:07:53.869Z,100500.64
2018-10-11T21:10:21.628Z,100510.95
2018-10-11T21:12:49.350Z,100510.34
2018-10-11T21:15:17.062Z,100512.12
2018-10-11T21:17:44.820Z,100520.20
2018-10-11T21:20:12.609Z,100514.39
2018-10-11T21:22:40.317Z,100512.60
2018-10-11T21:25:08.030Z,100506.14
2018-10-11T21:27:35.795Z,100498.18
2018-10-11T21:30:03.587Z,100501.89
2018-10-11T21:32:31.304Z,100498.18
2018-10-11T21:34:59.006Z,100503.44
2018-10-11T21:37:26.717Z,100503.06
2018-10-11T21:39:54.447Z,100505.44
2018-10-11T21:42:22.164Z,100500.39
2018-10-11T21:44:49.907Z,100502.68
2018-10-11T21:47:17.654Z,100501.13
2018-10-11T21:49:45.374Z,100497.38
2018-10-11T21:52:13.078Z,100500.78
2018-10-11T21:54:41.475Z,100497.27
2018-10-11T21:57:09.197Z,100495.77
2018-10-11T21:59:37.014Z,100493.19
2018-10-11T22:02:04.731Z,100493.98
2018-10-11T22:04:32.461Z,100495.84
2018-10-11T22:07:00.192Z,100488.91
2018-10-11T22:09:27.893Z,100482.84
2018-10-11T22:11:55.611Z,100489.58
2018-10-11T22:14:23.547Z,100490.91
2018-10-11T22:16:51.279Z,100488.63
2018-10-11T22:19:19.002Z,100489.88
2018-10-11T22:21:46.722Z,100491.20
2018-10-11T22:24:14.458Z,100488.84
2018-10-11T22:26:42.192Z,100484.76
2018-10-11T22:29:09.940Z,100485.91
2018-10-11T22:31:37.668Z,100488.47
2018-10-11T22:34:05.389Z,100489.60
2018-10-11T22:36:33.111Z,100491.03
2018-10-11T22:39:00.863Z,100490.66
2018-10-11T22:41:28.687Z,100488.17
2018-10-11T22:43:56.536Z,100487.65
2018-10-11T22:46:24.354Z,100486.56
2018-10-11T22:48:52.112Z,100489.80
2018-10-11T22:51:19.866Z,100484.50
2018-10-11T22:53:47.618Z,100488.98
2018-10-11T22:56:19.918Z,100490.77
2018-10-11T22:58:48.366Z,100487.65
2018-10-11T23:01:16.147Z,100488.58
2018-10-11T23:03:43.905Z,100482.69
2018-10-11T23:06:11.696Z,100490.84
2018-10-11T23:08:39.544Z,100492.66
2018-10-11T23:11:07.431Z,100490.20
2018-10-11T23:13:35.171Z,100492.66
2018-10-11T23:16:02.926Z,100493.70
2018-10-11T23:18:30.673Z,100492.66
2018-10-11T23:20:58.416Z,100493.29
2018-10-11T23:23:26.182Z,100492.91
2018-10-11T23:25:53.918Z,100491.32
2018-10-11T23:28:21.650Z,100489.41
2018-10-11T23:30:49.383Z,100485.14
2018-10-11T23:33:17.114Z,100479.86
2018-10-11T23:35:44.859Z,100476.30
2018-10-11T23:38:12.599Z,100478.94
2018-10-11T23:40:40.334Z,100473.82
2018-10-11T23:43:08.066Z,100470.80
2018-10-11T23:45:35.784Z,100467.06
2018-10-11T23:48:03.519Z,100465.86
2018-10-11T23:50:31.261Z,100464.93
2018-10-11T23:52:58.991Z,100459.31
2018-10-11T23:55:26.824Z,100451.82
2018-10-11T23:57:54.562Z,100454.47
